Time;durP1;ratioP1;P1;durP2;ratioP2;P2;SDS_P1;SDS_P2;PMS_P1;PMS_P2;Temp;Humidity;BMP_temperature;BMP_pressure;BME280_temperature;BME280_humidity;BME280_pressure;Samples;Min_cycle;Max_cycle;Signal;HPM_P1;HPM_P2
2023/05/02 00:00:15;;;;;;;6.65;2.30;;;12.10;99.90;;;;;;5074224;28;20020;-71
2023/05/02 00:02:41;;;;;;;3.65;2.83;;;12.20;99.90;;;;;;5074170;28;20089;-73
2023/05/02 00:05:07;;;;;;;5.80;2.97;;;12.10;99.90;;;;;;5074005;28;20044;-71
2023/05/02 00:07:33;;;;;;;3.97;2.35;;;12.10;99.90;;;;;;5074197;28;20028;-71
2023/05/02 00:10:01;;;;;;;0.70;0.70;;;12.20;99.90;;;;;;5074337;28;20043;-71
2023/05/02 00:12:27;;;;;;;3.08;1.25;;;12.10;99.90;;;;;;5073871;28;20377;-71
2023/05/02 00:14:53;;;;;;;0.52;0.52;;;12.20;99.90;;;;;;5073959;28;20032;-71
2023/05/02 00:17:19;;;;;;;1.65;1.58;;;12.30;99.90;;;;;;5072355;28;20028;-71
2023/05/02 00:19:45;;;;;;;3.20;2.15;;;12.30;99.90;;;;;;5073912;28;20032;-71
2023/05/02 00:22:11;;;;;;;1.08;1.08;;;12.30;99.90;;;;;;5073854;28;20056;-71
2023/05/02 00:24:37;;;;;;;7.28;2.90;;;12.30;99.90;;;;;;5073895;28;20453;-71
2023/05/02 00:27:03;;;;;;;0.98;0.93;;;12.40;99.90;;;;;;5073663;28;20154;-71
2023/05/02 00:29:29;;;;;;;7.30;3.97;;;12.30;99.90;;;;;;5072620;28;20028;-71
2023/05/02 00:31:56;;;;;;;4.68;3.13;;;12.40;99.90;;;;;;5073274;28;20032;-71
2023/05/02 00:34:23;;;;;;;0.10;0.10;;;12.20;99.90;;;;;;5072344;28;20024;-71
2023/05/02 00:36:49;;;;;;;3.22;1.80;;;12.30;99.90;;;;;;5055715;28;20032;-71
2023/05/02 00:39:15;;;;;;;2.60;2.40;;;12.20;99.90;;;;;;5072098;28;20066;-71
2023/05/02 00:41:41;;;;;;;8.48;3.58;;;12.40;99.90;;;;;;5073560;28;20077;-71
2023/05/02 00:44:07;;;;;;;4.47;0.95;;;12.40;99.90;;;;;;5072116;28;20399;-72
2023/05/02 00:46:33;;;;;;;2.97;2.70;;;12.40;99.90;;;;;;5071788;28;20031;-71
2023/05/02 00:49:00;;;;;;;4.55;4.03;;;12.30;99.90;;;;;;5072235;28;20031;-71
2023/05/02 00:51:26;;;;;;;1.35;1.17;;;12.30;99.90;;;;;;5072122;28;20036;-71
2023/05/02 00:53:52;;;;;;;0.77;0.70;;;12.20;99.90;;;;;;5071807;28;20033;-71
2023/05/02 00:56:18;;;;;;;2.90;2.17;;;12.30;99.90;;;;;;5073448;28;20033;-71
2023/05/02 00:58:45;;;;;;;13.77;6.40;;;12.20;99.90;;;;;;5071363;28;20449;-71
2023/05/02 01:01:50;;;;;;;2.13;1.98;;;12.00;99.90;;;;;;5061617;28;20035;-71
2023/05/02 01:04:40;;;;;;;2.08;1.88;;;11.90;99.90;;;;;;5049883;28;20021;-71
2023/05/02 01:07:15;;;;;;;0.43;0.43;;;12.00;99.90;;;;;;5057678;28;20025;-71
2023/05/02 01:10:05;;;;;;;5.63;2.92;;;12.10;99.90;;;;;;5072892;28;20016;-71
2023/05/02 01:12:42;;;;;;;3.85;2.30;;;12.00;99.90;;;;;;5072106;28;20024;-71
2023/05/02 01:15:14;;;;;;;3.28;1.90;;;12.10;99.90;;;;;;5072563;28;20032;-71
2023/05/02 01:17:41;;;;;;;1.75;1.65;;;12.20;99.90;;;;;;5071680;28;20028;-71
2023/05/02 01:20:19;;;;;;;0.20;0.20;;;12.20;99.90;;;;;;5071338;28;20119;-71
2023/05/02 01:22:47;;;;;;;0.10;0.10;;;12.10;99.90;;;;;;5071742;28;20032;-71
2023/05/02 01:25:29;;;;;;;0.90;0.90;;;12.20;99.90;;;;;;5071521;28;20032;-71
2023/05/02 01:28:08;;;;;;;4.00;3.38;;;12.40;99.90;;;;;;5071682;28;20101;-71
2023/05/02 01:30:36;;;;;;;2.35;2.15;;;12.20;99.90;;;;;;5072416;28;20047;-71
2023/05/02 01:33:03;;;;;;;2.78;2.40;;;12.10;99.90;;;;;;5058561;28;20439;-71
2023/05/02 01:35:31;;;;;;;6.47;3.15;;;11.60;99.90;;;;;;5072788;28;20028;-71
2023/05/02 01:38:00;;;;;;;0.68;0.68;;;11.60;99.90;;;;;;5071233;28;20031;-71
2023/05/02 01:40:26;;;;;;;0.40;0.40;;;11.40;99.90;;;;;;5071162;28;20051;-71
2023/05/02 01:42:53;;;;;;;3.72;1.00;;;11.30;99.90;;;;;;5054690;28;20028;-71
2023/05/02 01:45:20;;;;;;;0.47;0.45;;;11.20;99.90;;;;;;5072348;28;20035;-71
2023/05/02 01:47:47;;;;;;;3.20;2.60;;;11.20;99.90;;;;;;5072743;28;20047;-71
2023/05/02 01:50:19;;;;;;;1.10;1.05;;;11.10;99.90;;;;;;5070975;28;20115;-71
2023/05/02 01:52:47;;;;;;;0.10;0.10;;;11.10;99.90;;;;;;5071543;28;20079;-71
2023/05/02 01:55:15;;;;;;;0.17;0.17;;;11.10;99.90;;;;;;5071329;28;20477;-71
2023/05/02 01:57:44;;;;;;;1.25;1.17;;;11.10;99.90;;;;;;5050376;28;20032;-71
2023/05/02 02:00:12;;;;;;;1.90;1.67;;;11.10;99.90;;;;;;5048554;28;20527;-71
2023/05/02 02:02:42;;;;;;;1.23;1.02;;;11.00;99.90;;;;;;5048056;28;20021;-71
2023/05/02 02:05:09;;;;;;;0.47;0.47;;;11.00;99.90;;;;;;5046563;28;20483;-70
2023/05/02 02:07:36;;;;;;;2.13;1.98;;;11.00;99.90;;;;;;5048003;28;20398;-71
2023/05/02 02:10:02;;;;;;;0.10;0.10;;;11.00;99.90;;;;;;5050317;28;20033;-71
2023/05/02 02:12:35;;;;;;;7.60;3.35;;;11.00;99.90;;;;;;5056353;28;20111;-71
2023/05/02 02:15:13;;;;;;;2.72;2.53;;;10.90;99.90;;;;;;5071163;28;20025;-70
2023/05/02 02:17:45;;;;;;;4.63;4.20;;;10.90;99.90;;;;;;5051853;28;20171;-70
2023/05/02 02:20:12;;;;;;;0.73;0.73;;;10.90;99.90;;;;;;5054720;28;20466;-71
2023/05/02 02:22:40;;;;;;;4.90;1.63;;;11.00;99.90;;;;;;5051591;28;20033;-71
2023/05/02 02:25:09;;;;;;;0.35;0.35;;;11.00;99.90;;;;;;5051945;28;20151;-71
2023/05/02 02:27:37;;;;;;;0.88;0.88;;;11.00;99.90;;;;;;5051497;28;20428;-71
2023/05/02 02:30:03;;;;;;;0.22;0.22;;;11.10;99.90;;;;;;5050387;28;20108;-71
2023/05/02 02:32:29;;;;;;;3.10;2.53;;;11.20;99.90;;;;;;5054924;28;20029;-71
2023/05/02 02:34:55;;;;;;;0.10;0.10;;;11.40;99.90;;;;;;5051313;28;20080;-71
2023/05/02 02:37:53;;;;;;;0.82;0.60;;;11.30;99.90;;;;;;5054621;28;20607;-71
2023/05/02 02:40:48;;;;;;;0.10;0.10;;;11.70;99.90;;;;;;5039153;28;20048;-71
2023/05/02 02:43:30;;;;;;;2.63;1.35;;;11.90;99.90;;;;;;5055502;28;20021;-70
2023/05/02 02:46:05;;;;;;;;;;;12.00;99.90;;;;;;5051519;28;20375;-71
2023/05/02 02:48:33;;;;;;;2.05;1.95;;;12.00;99.90;;;;;;5061189;28;20316;-71
2023/05/02 02:51:00;;;;;;;0.30;0.30;;;12.10;99.90;;;;;;5041908;28;20037;-71
2023/05/02 02:53:37;;;;;;;4.22;1.67;;;12.20;99.90;;;;;;5051212;28;20041;-71
2023/05/02 02:56:14;;;;;;;0.47;0.45;;;12.00;99.90;;;;;;5053502;28;20370;-71
2023/05/02 02:58:58;;;;;;;9.60;1.17;;;11.90;99.90;;;;;;5055420;28;20029;-71
2023/05/02 03:01:29;;;;;;;0.30;0.30;;;11.60;99.90;;;;;;5050973;28;20033;-71
2023/05/02 03:03:57;;;;;;;1.70;1.60;;;11.80;99.90;;;;;;5034498;28;20041;-71
2023/05/02 03:06:23;;;;;;;1.27;0.60;;;11.60;99.90;;;;;;5055131;28;20101;-71
2023/05/02 03:08:51;;;;;;;12.63;2.50;;;11.60;99.90;;;;;;5050909;28;20111;-71
2023/05/02 03:11:19;;;;;;;6.13;1.58;;;11.60;99.90;;;;;;5085196;28;20023;-71
2023/05/02 03:13:46;;;;;;;1.27;1.17;;;11.60;99.90;;;;;;5050847;28;20041;-71
2023/05/02 03:16:29;;;;;;;1.65;0.68;;;11.50;99.90;;;;;;5053715;28;20033;-71
2023/05/02 03:18:55;;;;;;;4.47;0.95;;;11.50;99.90;;;;;;5034036;28;20034;-71
2023/05/02 03:21:21;;;;;;;1.48;0.50;;;11.50;99.90;;;;;;5053830;28;20370;-71
2023/05/02 03:23:48;;;;;;;0.10;0.10;;;11.60;99.90;;;;;;5033337;28;20121;-71
2023/05/02 03:26:16;;;;;;;1.00;1.00;;;11.70;99.90;;;;;;5053205;28;20060;-71
2023/05/02 03:28:46;;;;;;;0.43;0.43;;;11.80;99.90;;;;;;5050456;28;20152;-71
2023/05/02 03:31:16;;;;;;;0.00;0.00;;;11.80;99.90;;;;;;5048387;28;20029;-71
2023/05/02 03:33:42;;;;;;;0.08;0.08;;;11.90;99.90;;;;;;5055073;28;20531;-71
2023/05/02 03:36:08;;;;;;;0.28;0.20;;;12.00;99.90;;;;;;5050075;28;20034;-71
2023/05/02 03:38:34;;;;;;;0.90;0.90;;;12.00;99.90;;;;;;5051928;28;20151;-71
2023/05/02 03:41:04;;;;;;;5.22;2.05;;;11.90;99.90;;;;;;5033183;28;20025;-71
2023/05/02 03:43:31;;;;;;;0.10;0.10;;;11.80;99.90;;;;;;5034274;28;20032;-71
2023/05/02 03:46:02;;;;;;;1.05;1.05;;;11.80;99.90;;;;;;5054389;28;20029;-71
2023/05/02 03:48:28;;;;;;;;;;;11.80;99.90;;;;;;5035946;28;20037;-71
2023/05/02 03:50:55;;;;;;;0.10;0.10;;;11.80;99.90;;;;;;5069979;28;19931;-70
2023/05/02 03:53:21;;;;;;;0.38;0.38;;;11.60;99.90;;;;;;5033413;28;20512;-71
2023/05/02 03:55:53;;;;;;;0.67;0.30;;;11.60;99.90;;;;;;5033041;28;20135;-71
2023/05/02 03:58:27;;;;;;;0.35;0.35;;;11.90;99.90;;;;;;5030481;28;20489;-71
2023/05/02 04:00:55;;;;;;;0.22;0.22;;;11.80;99.90;;;;;;5033318;28;20038;-71
2023/05/02 04:03:22;;;;;;;0.20;0.20;;;11.90;99.90;;;;;;5036352;28;20393;-71
2023/05/02 04:05:50;;;;;;;0.95;0.95;;;11.90;99.90;;;;;;5033750;28;20044;-71
2023/05/02 04:08:17;;;;;;;0.80;0.80;;;11.90;99.90;;;;;;5032933;28;20017;-71
2023/05/02 04:10:44;;;;;;;0.03;0.03;;;11.80;99.90;;;;;;5029563;28;20036;-71
2023/05/02 04:13:11;;;;;;;0.38;0.38;;;12.00;99.90;;;;;;5036043;28;20095;-71
2023/05/02 04:15:40;;;;;;;1.85;1.65;;;12.00;99.90;;;;;;5032725;28;20375;-71
2023/05/02 04:18:06;;;;;;;0.10;0.10;;;12.00;99.90;;;;;;5034118;28;20029;-71
2023/05/02 04:20:33;;;;;;;0.10;0.10;;;12.10;99.90;;;;;;5032705;28;20498;-71
2023/05/02 04:22:59;;;;;;;0.73;0.73;;;12.20;99.90;;;;;;5032719;28;20385;-71
2023/05/02 04:25:26;;;;;;;0.22;0.22;;;12.10;99.90;;;;;;5053723;28;20033;-71
2023/05/02 04:27:55;;;;;;;0.40;0.40;;;12.10;99.90;;;;;;5035768;28;20108;-71
2023/05/02 04:30:23;;;;;;;7.75;4.25;;;12.20;99.90;;;;;;5032666;28;20496;-72
2023/05/02 04:33:04;;;;;;;0.20;0.20;;;12.10;99.90;;;;;;5031083;28;20119;-71
2023/05/02 04:35:34;;;;;;;2.25;1.52;;;12.10;99.90;;;;;;5031617;28;20128;-71
2023/05/02 04:38:01;;;;;;;0.52;0.43;;;12.30;99.90;;;;;;5029273;28;20270;-71
2023/05/02 04:40:28;;;;;;;0.45;0.45;;;12.20;99.90;;;;;;5048036;28;20082;-71
2023/05/02 04:43:00;;;;;;;1.65;1.50;;;12.20;99.90;;;;;;5048903;28;20429;-71
2023/05/02 04:45:35;;;;;;;0.10;0.10;;;12.20;99.90;;;;;;5039329;28;20377;-71
2023/05/02 04:48:03;;;;;;;1.58;0.90;;;12.10;99.90;;;;;;5048406;28;20030;-71
2023/05/02 04:50:29;;;;;;;0.10;0.10;;;11.90;99.90;;;;;;5047135;28;20026;-71
2023/05/02 04:52:54;;;;;;;0.25;0.25;;;12.00;99.90;;;;;;5043572;28;20499;-71
2023/05/02 04:55:21;;;;;;;0.28;0.28;;;12.10;99.90;;;;;;5051272;28;20029;-71
2023/05/02 04:57:47;;;;;;;0.47;0.47;;;12.00;99.90;;;;;;5048766;28;20029;-70
2023/05/02 05:00:15;;;;;;;0.52;0.43;;;11.90;99.90;;;;;;5051986;28;20492;-70
2023/05/02 05:02:41;;;;;;;3.00;1.95;;;12.00;99.90;;;;;;5052968;28;20033;-71
2023/05/02 05:05:09;;;;;;;0.13;0.13;;;12.00;99.90;;;;;;5032201;28;20022;-71
2023/05/02 05:07:35;;;;;;;1.17;1.08;;;12.10;99.90;;;;;;5048311;28;20028;-71
2023/05/02 05:10:01;;;;;;;0.88;0.80;;;12.20;99.90;;;;;;5053083;28;20087;-71
2023/05/02 05:12:32;;;;;;;0.65;0.65;;;12.30;99.90;;;;;;5032573;28;20036;-71
2023/05/02 05:14:58;;;;;;;0.30;0.30;;;11.90;99.90;;;;;;5048335;28;20036;-71
2023/05/02 05:17:26;;;;;;;0.73;0.73;;;12.00;99.90;;;;;;5024784;28;20076;-70
2023/05/02 05:19:52;;;;;;;2.08;0.50;;;12.00;99.90;;;;;;5066915;28;20029;-71
2023/05/02 05:22:19;;;;;;;0.52;0.38;;;12.10;99.90;;;;;;5048123;28;20022;-72
2023/05/02 05:24:52;;;;;;;0.20;0.20;;;12.30;99.90;;;;;;5081895;28;20033;-71
2023/05/02 05:27:20;;;;;;;0.30;0.30;;;12.20;99.90;;;;;;5048174;28;20108;-72
2023/05/02 05:29:46;;;;;;;0.85;0.85;;;12.20;99.90;;;;;;5046302;28;20022;-71
2023/05/02 05:32:13;;;;;;;0.77;0.77;;;12.00;99.90;;;;;;5051462;28;20025;-72
2023/05/02 05:34:39;;;;;;;0.10;0.10;;;11.90;99.90;;;;;;5051249;28;20029;-71
2023/05/02 05:37:05;;;;;;;0.55;0.55;;;12.00;99.90;;;;;;5047911;28;20132;-71
2023/05/02 05:39:31;;;;;;;0.47;0.47;;;12.00;99.90;;;;;;5044893;28;20037;-72
2023/05/02 05:42:00;;;;;;;0.30;0.30;;;11.90;99.90;;;;;;5032108;28;20032;-71
2023/05/02 05:44:26;;;;;;;0.75;0.57;;;12.10;99.90;;;;;;5035473;28;20074;-72
2023/05/02 05:46:52;;;;;;;0.20;0.20;;;12.30;99.90;;;;;;5040049;28;20020;-71
2023/05/02 05:49:21;;;;;;;0.10;0.10;;;12.30;99.90;;;;;;5055239;28;20020;-72
2023/05/02 05:51:47;;;;;;;0.00;0.00;;;12.40;99.90;;;;;;5035635;28;20025;-72
2023/05/02 05:54:15;;;;;;;0.03;0.03;;;12.50;99.90;;;;;;5042572;28;20021;-71
2023/05/02 05:56:41;;;;;;;3.63;1.95;;;12.60;99.90;;;;;;5052920;28;20124;-71
2023/05/02 05:59:11;;;;;;;3.03;1.27;;;12.50;99.90;;;;;;5039206;28;20025;-71
2023/05/02 06:01:37;;;;;;;0.63;0.63;;;12.30;99.90;;;;;;5036960;28;20489;-71
2023/05/02 06:04:04;;;;;;;1.02;0.95;;;12.40;99.90;;;;;;5036879;28;20461;-71
2023/05/02 06:06:33;;;;;;;0.38;0.38;;;12.40;99.90;;;;;;5030292;28;20036;-71
2023/05/02 06:08:59;;;;;;;0.00;0.00;;;12.40;99.90;;;;;;5037128;28;20491;-72
2023/05/02 06:11:25;;;;;;;0.20;0.20;;;12.50;99.90;;;;;;5037647;28;20052;-72
2023/05/02 06:13:52;;;;;;;0.10;0.10;;;12.50;99.90;;;;;;5022888;28;20525;-71
2023/05/02 06:16:18;;;;;;;0.08;0.08;;;12.50;99.90;;;;;;5037974;28;20037;-72
2023/05/02 06:18:45;;;;;;;0.10;0.10;;;12.40;99.90;;;;;;5042307;28;20048;-71
2023/05/02 06:21:13;;;;;;;3.35;0.50;;;12.50;99.90;;;;;;5048138;28;20072;-72
2023/05/02 06:23:39;;;;;;;0.22;0.20;;;12.70;99.90;;;;;;5038555;28;20057;-72
2023/05/02 06:26:05;;;;;;;0.10;0.10;;;12.80;99.90;;;;;;5058958;28;20028;-71
2023/05/02 06:28:31;;;;;;;0.45;0.45;;;12.90;99.90;;;;;;5052272;28;20031;-71
2023/05/02 06:30:58;;;;;;;1.13;0.40;;;12.80;99.90;;;;;;5061537;28;20396;-71
2023/05/02 06:33:23;;;;;;;0.10;0.10;;;12.60;99.90;;;;;;5063319;28;20024;-72
2023/05/02 06:35:53;;;;;;;0.10;0.10;;;12.60;99.90;;;;;;5039246;28;20042;-71
2023/05/02 06:38:19;;;;;;;0.10;0.10;;;12.70;99.90;;;;;;5057343;28;20380;-72
2023/05/02 06:40:45;;;;;;;0.13;0.13;;;12.50;99.90;;;;;;5044450;28;20098;-72
2023/05/02 06:43:11;;;;;;;0.10;0.10;;;12.50;99.90;;;;;;5048363;28;20032;-72
2023/05/02 06:45:37;;;;;;;1.08;0.98;;;12.80;99.90;;;;;;5050819;28;20029;-71
2023/05/02 06:48:04;;;;;;;0.10;0.10;;;12.60;99.90;;;;;;5060815;28;20047;-72
2023/05/02 06:50:29;;;;;;;0.00;0.00;;;12.60;99.90;;;;;;5053642;28;20488;-71
2023/05/02 06:52:55;;;;;;;1.85;1.25;;;12.60;99.90;;;;;;5054720;28;20116;-72
2023/05/02 06:55:21;;;;;;;0.10;0.10;;;12.90;99.90;;;;;;5061297;28;20149;-72
2023/05/02 06:57:50;;;;;;;0.10;0.10;;;13.00;99.90;;;;;;5061066;28;20044;-73
2023/05/02 07:00:17;;;;;;;0.05;0.05;;;13.30;99.90;;;;;;5062793;28;20500;-73
2023/05/02 07:02:44;;;;;;;0.90;0.80;;;13.20;99.90;;;;;;5055714;28;20392;-72
2023/05/02 07:05:10;;;;;;;0.10;0.10;;;13.20;99.90;;;;;;5055155;28;20025;-72
2023/05/02 07:07:36;;;;;;;0.00;0.00;;;13.30;99.90;;;;;;5054658;28;20079;-72
2023/05/02 07:10:03;;;;;;;0.45;0.28;;;13.40;99.90;;;;;;5068860;28;20100;-72
2023/05/02 07:12:28;;;;;;;0.30;0.30;;;13.40;99.90;;;;;;5060833;28;20021;-72
2023/05/02 07:14:54;;;;;;;0.50;0.47;;;13.70;99.90;;;;;;5058943;28;20094;-71
2023/05/02 07:17:21;;;;;;;0.15;0.15;;;13.90;99.90;;;;;;5056066;28;20453;-72
2023/05/02 07:19:47;;;;;;;0.43;0.43;;;13.80;99.90;;;;;;5067996;28;20017;-72
2023/05/02 07:22:12;;;;;;;0.10;0.10;;;13.70;99.90;;;;;;5050113;28;20031;-72
2023/05/02 07:24:41;;;;;;;2.30;1.08;;;14.00;99.90;;;;;;5063930;28;20033;-72
2023/05/02 07:27:12;;;;;;;0.40;0.35;;;13.90;99.90;;;;;;5036432;28;20010;-72
2023/05/02 07:29:38;;;;;;;9.55;0.57;;;14.10;99.90;;;;;;5051119;28;20024;-73
2023/05/02 07:32:05;;;;;;;0.28;0.28;;;14.30;99.90;;;;;;5068866;28;20043;-72
2023/05/02 07:34:31;;;;;;;0.20;0.20;;;14.40;99.90;;;;;;5067640;28;20035;-72
2023/05/02 07:36:57;;;;;;;0.10;0.10;;;14.60;99.90;;;;;;5059719;28;20059;-72
2023/05/02 07:39:24;;;;;;;0.00;0.00;;;14.80;99.90;;;;;;5039307;28;20026;-73
2023/05/02 07:41:53;;;;;;;0.25;0.25;;;15.00;99.90;;;;;;5049131;28;20025;-71
2023/05/02 07:44:20;;;;;;;0.20;0.20;;;15.00;99.90;;;;;;5068866;28;20033;-72
2023/05/02 07:46:46;;;;;;;0.28;0.28;;;15.20;99.90;;;;;;5057252;28;20036;-72
2023/05/02 07:49:12;;;;;;;0.63;0.55;;;15.10;99.90;;;;;;5057964;28;20035;-71
2023/05/02 07:51:38;;;;;;;0.43;0.43;;;15.30;99.90;;;;;;5054924;28;20035;-72
2023/05/02 07:54:20;;;;;;;0.17;0.17;;;15.30;99.90;;;;;;5059920;28;20465;-71
2023/05/02 07:56:46;;;;;;;;;;;15.00;99.90;;;;;;5067265;28;20123;-71
2023/05/02 07:59:12;;;;;;;0.10;0.10;;;15.20;99.90;;;;;;5052456;28;20015;-72
2023/05/02 08:01:40;;;;;;;4.25;1.05;;;15.10;99.90;;;;;;5057394;28;20037;-72
2023/05/02 08:04:06;;;;;;;0.20;0.20;;;15.00;99.90;;;;;;5055616;28;20070;-72
2023/05/02 08:06:32;;;;;;;0.10;0.10;;;14.60;99.90;;;;;;5066994;28;20484;-72
2023/05/02 08:08:58;;;;;;;0.38;0.38;;;14.60;99.90;;;;;;5065112;28;20027;-72
2023/05/02 08:11:24;;;;;;;0.08;0.08;;;14.80;99.90;;;;;;5058909;28;20031;-71
2023/05/02 08:13:53;;;;;;;1.35;1.25;;;14.90;99.90;;;;;;5055353;28;20021;-72
2023/05/02 08:16:20;;;;;;;0.25;0.25;;;15.10;99.90;;;;;;5067281;28;20481;-72
2023/05/02 08:18:45;;;;;;;4.78;0.30;;;15.10;99.90;;;;;;5066470;28;20012;-71
2023/05/02 08:21:11;;;;;;;1.15;0.68;;;15.30;99.90;;;;;;5064468;28;20025;-71
2023/05/02 08:23:39;;;;;;;6.50;1.42;;;15.20;99.90;;;;;;5056687;28;20111;-71
2023/05/02 08:26:05;;;;;;;3.03;2.83;;;15.20;99.90;;;;;;5054677;28;20033;-71
2023/05/02 08:28:32;;;;;;;0.57;0.57;;;15.10;99.90;;;;;;5062828;28;20121;-71
2023/05/02 08:30:58;;;;;;;0.32;0.32;;;14.20;99.90;;;;;;5066620;28;20453;-71
2023/05/02 08:33:24;;;;;;;1.75;1.00;;;14.30;99.90;;;;;;5060081;28;20373;-71
2023/05/02 08:35:50;;;;;;;0.65;0.65;;;14.20;99.90;;;;;;5055859;28;20362;-71
2023/05/02 08:38:16;;;;;;;1.40;0.90;;;14.30;99.90;;;;;;5053300;28;20112;-72
2023/05/02 08:40:42;;;;;;;1.50;0.98;;;14.60;99.90;;;;;;5067122;28;20036;-71
2023/05/02 08:43:10;;;;;;;1.92;0.65;;;14.90;99.90;;;;;;5065667;28;20389;-72
2023/05/02 08:45:41;;;;;;;0.57;0.57;;;14.50;99.90;;;;;;5056810;28;20025;-72
2023/05/02 08:48:09;;;;;;;0.60;0.60;;;14.30;99.90;;;;;;5054847;28;20362;-71
2023/05/02 08:50:40;;;;;;;1.80;0.82;;;14.50;99.90;;;;;;5069262;28;20057;-72
2023/05/02 08:53:08;;;;;;;2.33;0.63;;;14.50;99.90;;;;;;5067586;28;20025;-72
2023/05/02 08:55:38;;;;;;;0.28;0.28;;;14.80;99.90;;;;;;5059837;28;20056;-70
2023/05/02 08:58:04;;;;;;;3.28;0.70;;;15.10;99.90;;;;;;5054801;28;20029;-71
2023/05/02 09:00:41;;;;;;;0.10;0.10;;;15.40;99.90;;;;;;5051254;28;20769;-70
2023/05/02 09:03:32;;;;;;;0.10;0.10;;;15.80;99.90;;;;;;5064418;28;20017;-71
2023/05/02 09:06:05;;;;;;;3.65;2.30;;;16.20;99.90;;;;;;5061396;28;20037;-71
2023/05/02 09:08:33;;;;;;;0.10;0.10;;;15.20;99.90;;;;;;5060975;28;20025;-71
2023/05/02 09:11:00;;;;;;;0.08;0.08;;;15.20;99.90;;;;;;5059755;28;20103;-71
2023/05/02 09:13:35;;;;;;;1.27;0.82;;;16.00;99.90;;;;;;5052671;28;20036;-71
2023/05/02 09:16:04;;;;;;;0.10;0.10;;;16.40;99.90;;;;;;5064079;28;20402;-72
2023/05/02 09:18:33;;;;;;;0.20;0.20;;;17.00;99.40;;;;;;5058025;28;20024;-72
2023/05/02 09:21:00;;;;;;;0.30;0.30;;;17.50;98.50;;;;;;5054320;28;20036;-71
2023/05/02 09:23:52;;;;;;;0.10;0.10;;;17.80;97.60;;;;;;5049472;28;20098;-71
2023/05/02 09:26:32;;;;;;;0.52;0.52;;;17.80;98.00;;;;;;5061406;28;20066;-72
2023/05/02 09:29:03;;;;;;;0.10;0.10;;;17.80;97.40;;;;;;5049384;28;20512;-71
2023/05/02 09:31:35;;;;;;;0.57;0.30;;;17.90;98.00;;;;;;5054826;28;20115;-71
2023/05/02 09:34:15;;;;;;;0.80;0.30;;;17.90;97.40;;;;;;5050750;28;20033;-72
2023/05/02 09:36:52;;;;;;;0.10;0.10;;;17.80;97.00;;;;;;5054520;28;20047;-71
2023/05/02 09:39:36;;;;;;;0.10;0.10;;;17.60;96.50;;;;;;5058981;28;20024;-72
2023/05/02 09:42:02;;;;;;;0.10;0.10;;;17.70;96.90;;;;;;5051528;28;20104;-71
2023/05/02 09:44:36;;;;;;;0.60;0.10;;;18.20;96.80;;;;;;5050120;28;20421;-71
2023/05/02 09:47:02;;;;;;;0.25;0.22;;;18.50;96.20;;;;;;5054247;28;20036;-72
2023/05/02 09:49:44;;;;;;;0.08;0.08;;;18.60;95.50;;;;;;5059461;28;20029;-71
2023/05/02 09:52:12;;;;;;;0.05;0.05;;;18.10;95.30;;;;;;5057651;28;20420;-71
2023/05/02 09:54:37;;;;;;;0.15;0.15;;;17.50;95.70;;;;;;5056392;28;20056;-71
2023/05/02 09:57:05;;;;;;;0.47;0.47;;;17.60;95.80;;;;;;5053248;28;20080;-71
2023/05/02 09:59:32;;;;;;;0.10;0.10;;;17.90;96.00;;;;;;5060243;28;20059;-72
2023/05/02 10:02:02;;;;;;;0.10;0.10;;;17.80;94.70;;;;;;5059733;28;20473;-71
2023/05/02 10:04:30;;;;;;;6.60;2.58;;;17.80;95.10;;;;;;5057549;28;20025;-71
2023/05/02 10:06:57;;;;;;;2.20;1.08;;;17.30;95.20;;;;;;5065769;28;20017;-72
2023/05/02 10:09:25;;;;;;;0.70;0.65;;;17.50;95.50;;;;;;5057067;28;20104;-72
2023/05/02 10:11:53;;;;;;;0.00;0.00;;;17.80;96.20;;;;;;5054287;28;20475;-72
2023/05/02 10:14:21;;;;;;;4.30;0.43;;;17.90;94.80;;;;;;5048401;28;20472;-71
2023/05/02 10:17:09;;;;;;;2.65;0.30;;;18.10;94.90;;;;;;5066530;28;20496;-71
2023/05/02 10:19:58;;;;;;;0.10;0.10;;;18.00;94.60;;;;;;5062185;28;20098;-72
2023/05/02 10:22:24;;;;;;;0.17;0.17;;;17.50;94.80;;;;;;5051719;28;20116;-71
2023/05/02 10:24:52;;;;;;;1.60;1.13;;;17.60;95.50;;;;;;5056614;28;20047;-72
2023/05/02 10:27:18;;;;;;;0.00;0.00;;;17.60;95.30;;;;;;5068673;28;20017;-71
2023/05/02 10:29:45;;;;;;;0.00;0.00;;;17.60;95.70;;;;;;5063874;28;20116;-71
2023/05/02 10:32:13;;;;;;;0.08;0.08;;;16.90;96.60;;;;;;5059396;28;20025;-71
2023/05/02 10:34:40;;;;;;;0.20;0.20;;;17.10;95.70;;;;;;5060133;28;20441;-72
2023/05/02 10:37:06;;;;;;;0.68;0.68;;;17.20;95.50;;;;;;5051212;28;20124;-71
2023/05/02 10:39:32;;;;;;;0.10;0.10;;;17.80;95.30;;;;;;5056786;28;20111;-71
2023/05/02 10:42:01;;;;;;;0.32;0.28;;;17.30;95.10;;;;;;5063783;28;20422;-71
2023/05/02 10:44:38;;;;;;;0.00;0.00;;;17.10;95.70;;;;;;5039720;28;20059;-71
2023/05/02 10:47:23;;;;;;;0.55;0.38;;;17.60;95.80;;;;;;5056776;28;20023;-72
2023/05/02 10:49:55;;;;;;;0.93;0.88;;;17.90;94.80;;;;;;5065894;28;20039;-71
2023/05/02 10:52:40;;;;;;;4.88;1.05;;;17.90;95.10;;;;;;5060315;28;20036;-71
2023/05/02 10:55:21;;;;;;;0.00;0.00;;;17.60;94.40;;;;;;5053727;28;20016;-71
2023/05/02 10:57:56;;;;;;;0.17;0.17;;;17.60;95.20;;;;;;5056880;28;20443;-71
2023/05/02 11:00:31;;;;;;;0.20;0.20;;;17.60;94.70;;;;;;5063200;28;20020;-71
2023/05/02 11:02:57;;;;;;;1.00;0.93;;;18.30;94.30;;;;;;5048093;28;20039;-72
2023/05/02 11:05:24;;;;;;;0.17;0.17;;;18.60;93.60;;;;;;5048664;28;20024;-72
2023/05/02 11:08:18;;;;;;;0.43;0.43;;;18.90;93.50;;;;;;5064832;28;20044;-72
2023/05/02 11:10:45;;;;;;;0.00;0.00;;;18.30;92.80;;;;;;5062138;28;20021;-72
2023/05/02 11:13:11;;;;;;;0.15;0.15;;;17.90;93.50;;;;;;5055236;28;20025;-72
2023/05/02 11:15:39;;;;;;;0.00;0.00;;;18.30;93.20;;;;;;5046098;28;20040;-72
2023/05/02 11:18:13;;;;;;;0.40;0.35;;;18.90;93.10;;;;;;5065906;28;20047;-72
2023/05/02 11:20:42;;;;;;;0.10;0.10;;;19.20;93.10;;;;;;5055799;28;20029;-72
2023/05/02 11:23:15;;;;;;;0.15;0.15;;;19.60;92.30;;;;;;5058913;28;20469;-72
2023/05/02 11:25:45;;;;;;;0.60;0.30;;;19.60;91.50;;;;;;5064171;28;20048;-71
2023/05/02 11:28:35;;;;;;;1.35;0.63;;;20.00;90.60;;;;;;5068016;28;20033;-72
2023/05/02 11:31:01;;;;;;;8.95;3.13;;;19.80;90.50;;;;;;5051345;28;20020;-71
2023/05/02 11:33:28;;;;;;;0.10;0.10;;;19.40;91.90;;;;;;5059720;28;20025;-71
2023/05/02 11:35:56;;;;;;;1.60;1.23;;;19.20;91.20;;;;;;5055412;28;20592;-71
2023/05/02 11:38:23;;;;;;;0.90;0.45;;;18.10;92.10;;;;;;5049443;28;20021;-71
2023/05/02 11:40:50;;;;;;;0.30;0.20;;;17.60;93.20;;;;;;5064888;28;20370;-71
2023/05/02 11:43:18;;;;;;;0.22;0.08;;;18.40;92.20;;;;;;5063661;28;20020;-71
2023/05/02 11:45:45;;;;;;;1.13;1.02;;;18.80;92.50;;;;;;5057023;28;20037;-71
2023/05/02 11:48:12;;;;;;;0.35;0.35;;;18.80;91.80;;;;;;5054488;28;20029;-71
2023/05/02 11:50:46;;;;;;;0.30;0.30;;;19.00;92.80;;;;;;5067494;28;20029;-71
2023/05/02 11:53:15;;;;;;;0.20;0.20;;;19.10;91.60;;;;;;5066727;28;20082;-71
2023/05/02 11:56:03;;;;;;;0.40;0.40;;;19.40;92.00;;;;;;5037783;28;20030;-70
2023/05/02 11:58:32;;;;;;;3.30;1.65;;;20.10;91.50;;;;;;5053194;28;20025;-71
2023/05/02 12:00:58;;;;;;;1.38;0.88;;;19.50;90.60;;;;;;5065700;28;20027;-71
2023/05/02 12:03:29;;;;;;;3.53;1.10;;;18.80;90.80;;;;;;5060359;28;20021;-71
2023/05/02 12:05:57;;;;;;;0.55;0.50;;;18.70;91.20;;;;;;5063942;28;20135;-71
2023/05/02 12:08:23;;;;;;;0.20;0.20;;;19.30;92.20;;;;;;5061339;28;20539;-72
2023/05/02 12:10:51;;;;;;;0.52;0.52;;;19.80;91.80;;;;;;5062252;28;20025;-71
2023/05/02 12:13:17;;;;;;;0.10;0.10;;;20.00;91.50;;;;;;5054014;28;20481;-72
2023/05/02 12:15:43;;;;;;;3.92;1.23;;;19.50;91.20;;;;;;5063641;28;20028;-71
2023/05/02 12:18:09;;;;;;;0.68;0.68;;;18.80;91.20;;;;;;5063066;28;20470;-71
2023/05/02 12:20:37;;;;;;;0.00;0.00;;;18.40;92.00;;;;;;5061902;28;20527;-71
2023/05/02 12:23:05;;;;;;;1.00;0.68;;;18.90;91.90;;;;;;5058455;28;20872;-72
2023/05/02 12:25:36;;;;;;;0.77;0.75;;;19.90;92.20;;;;;;5062304;28;20047;-72
2023/05/02 12:28:02;;;;;;;0.68;0.68;;;19.90;90.80;;;;;;5067274;28;20491;-72
2023/05/02 12:30:29;;;;;;;2.83;2.28;;;20.10;91.20;;;;;;5061867;28;20041;-72
2023/05/02 12:33:02;;;;;;;0.25;0.25;;;19.50;90.40;;;;;;5062848;28;20075;-71
2023/05/02 12:35:30;;;;;;;0.15;0.15;;;20.00;90.10;;;;;;5054608;28;20040;-72
2023/05/02 12:38:09;;;;;;;5.97;0.93;;;20.00;89.90;;;;;;5064626;28;20068;-72
2023/05/02 12:40:35;;;;;;;1.35;0.52;;;19.40;90.00;;;;;;5064703;28;20580;-72
2023/05/02 12:43:05;;;;;;;0.00;0.00;;;19.50;90.20;;;;;;5064080;28;20428;-71
2023/05/02 12:45:34;;;;;;;0.88;0.60;;;20.20;89.10;;;;;;5052295;28;20017;-72
2023/05/02 12:48:01;;;;;;;1.38;1.23;;;19.80;88.90;;;;;;5051150;28;20025;-73
2023/05/02 12:50:37;;;;;;;7.22;1.45;;;19.10;89.40;;;;;;5031670;28;20443;-72
2023/05/02 12:53:05;;;;;;;0.05;0.05;;;19.30;88.60;;;;;;5043655;28;20033;-72
2023/05/02 12:55:31;;;;;;;0.35;0.35;;;19.80;89.60;;;;;;5051034;28;20029;-72
2023/05/02 12:58:13;;;;;;;10.48;1.60;;;20.90;87.60;;;;;;5053035;28;20091;-72